Bodega Marine Reserve, California Weather observations

Data are for 10 minute period ending at time listed.
 Day   Time   Solar   Ave.   Ave.  Ave.  Vector  Max.   Baro.   Total    
  of    of     Rad.   Air    Rel.  Wind   Wind   Wind  Press.  Precip.   
Year   Day            Temp.  Hum.  Speed  Dir.   Gust                    
2014   (PST)  Kw/m2    F      %     mph   deg.    mph    mb.     in.     
-------------------------------------------------------------------------
 331   12:10   0.45   65.1    57    4.4   123     6.3   1017.6    0.00 
 331   12:20   0.49   66.3    55    4.1   119     6.6   1017.6    0.00 
 331   12:30   0.49   67.2    53    4.0   114     7.7   1017.6    0.00 
 331   12:40   0.49   67.2    53    4.6   129     7.3   1017.3    0.00 
 331   12:50   0.46   67.0    54    4.5   128     6.5   1017.3    0.00 
 331   13:00   0.47   66.3    57    6.1   137     8.0   1016.9    0.00 
 331   13:10   0.41   65.4    59    6.9   140     8.4   1016.9    0.00 
 331   13:20   0.45   66.2    57    6.6   141     9.0   1016.6    0.00 
 331   13:30   0.42   65.7    59    7.1   149     9.3   1016.6    0.00 
 331   13:40   0.40   66.3    58    6.2   168     9.6   1016.6    0.00 
 331   13:50   0.38   65.1    61    7.7   198    11.2   1016.3    0.00 
 331   14:00   0.36   63.3    62    9.1   210    12.6   1016.3    0.00 
 331   14:10   0.37   63.3    63    8.8   218    12.6   1016.3    0.00 
 331   14:20   0.35   62.9    65    7.4   220    11.2   1016.3    0.00 
 331   14:30   0.33   62.7    66    6.2   225     9.4   1016.3    0.00 
 331   14:40   0.31   63.4    65    5.3   215     8.7   1016.3    0.00 
 331   14:50   0.28   63.2    67    5.7   221     8.8   1016.3    0.00 
 331   15:00   0.26   62.7    68    5.4   211     7.2   1015.9    0.00 
 331   15:10   0.24   62.9    65    3.1   173     4.5   1015.9    0.00 
 331   15:20   0.21   61.3    72    4.1   109     6.1   1015.6    0.00 
 331   15:30   0.19   60.7    76    3.7   115     6.1   1015.6    0.00 
 331   15:40   0.16   59.7    78    3.4   156     5.2   1015.6    0.00 
 331   15:50   0.14   60.2    76    3.0   187     5.6   1015.6    0.00 
 331   16:00   0.11   60.0    73    3.9   210     7.8   1015.2    0.00 
 331   16:10   0.09   59.5    75    5.1   226     8.2   1015.2    0.00 
 331   16:20   0.05   58.5    76    2.5   173     5.6   1015.2    0.00 
 331   16:30   0.02   57.5    78    0.3   166     1.7   1014.9    0.00 
 331   16:40   0.01   56.2    79    2.8   228     5.3   1014.9    0.00 
 331   16:50   0.01   54.6    83    0.7   286     2.8   1014.9    0.00 
 331   17:00   0.00   53.4    84    2.6   270     4.0   1014.9    0.00 
 331   17:10   0.00   52.1    88    3.7   297     4.5   1014.9    0.00 
 331   17:20   0.00   52.3    90    4.2   299     4.7   1014.9    0.00 
 331   17:30   0.00   52.3    91    3.6   300     4.1   1014.9    0.00 
 331   17:40   0.00   52.8    92    3.4   300     4.0   1014.9    0.00 
 331   17:50   0.00   52.4    93    4.0   300     4.9   1015.2    0.00 
 331   18:00   0.00   51.9    93    4.4   309     5.2   1014.9    0.00 
 331   18:10   0.00   51.7    94    3.9   312     4.2   1014.9    0.00 
 331   18:20   0.00   52.5    94    3.8   318     4.7   1014.9    0.00 
 331   18:30   0.00   52.8    94    2.9   309     3.9   1014.9    0.00 
 331   18:40   0.00   52.9    95    3.0   298     3.7   1014.9    0.00 
 331   18:50   0.00   52.7    95    2.7   299     3.2   1014.9    0.00 
 331   19:00   0.00   52.3    95    2.8   300     3.3   1015.2    0.00 
 331   19:10   0.00   51.4    95    3.7   300     4.5   1015.2    0.00 
 331   19:20   0.00   51.5    95    3.7   306     4.6   1015.2    0.00 
 331   19:30   0.00   51.7    95    4.0   310     4.6   1015.2    0.00 
 331   19:40   0.00   51.8    96    4.0   312     4.6   1015.2    0.00 
 331   19:50   0.00   52.1    96    3.4   314     4.4   1015.2    0.00 
 331   20:00   0.00   52.1    96    3.6   312     4.2   1015.2    0.00 
 331   20:10   0.00   52.0    96    4.0   320     4.7   1015.2    0.00 
 331   20:20   0.00   52.2    96    3.4   312     4.3   1015.2    0.00 
 331   20:30   0.00   52.4    96    3.0   302     3.8   1015.2    0.00 
 331   20:40   0.00   52.4    96    3.5   321     4.2   1015.2    0.00 
 331   20:50   0.00   52.3    96    2.9   312     3.9   1015.2    0.00 
 331   21:00   0.00   52.3    96    1.9   301     2.4   1015.2    0.00 
 331   21:10   0.00   52.4    95    1.5   297     2.2   1015.2    0.00 
 331   21:20   0.00   52.0    96    0.9   292     1.6   1015.2    0.00 
 331   21:30   0.00   52.1    95    0.1   293     0.6   1015.2    0.00 
 331   21:40   0.00   49.5    95    0.0     0     0.0   1015.2    0.00 
 331   21:50   0.00   49.7    96    0.7   134     1.8   1015.2    0.00 
 331   22:00   0.00   50.1    96    1.7   139     2.3   1015.2    0.00 
 331   22:10   0.00   49.4    96    2.7   154     3.3   1015.2    0.00 
 331   22:20   0.00   50.2    96    2.5   154     3.1   1015.2    0.00 
 331   22:30   0.00   50.2    96    2.5   154     3.1   1015.2    0.00 
 331   22:40   0.00   50.8    96    2.8   156     3.9   1015.2    0.00 
 331   22:50   0.00   50.9    96    3.8   146     5.0   1015.2    0.00 
 331   23:00   0.00   51.3    96    4.8   137     5.8   1015.2    0.00 
 331   23:10   0.00   52.1    96    4.9   142     6.0   1015.2    0.00 
 331   23:20   0.00   52.1    96    5.0   141     6.5   1015.2    0.00 
 331   23:30   0.00   51.8    96    5.0   137     7.1   1015.2    0.00 
 331   23:40   0.00   51.8    96    6.3   142     7.9   1014.9    0.00 
 331   23:50   0.00   51.6    97    6.4   142     7.7   1014.9    0.00 
 332    0:00   0.00   51.3    96    4.4   133     6.6   1014.6    0.00 
 332    0:10   0.00   50.6    97    4.1   128     5.3   1014.6    0.00 
 332    0:20   0.00   50.3    96    3.4   125     4.7   1014.6    0.00 
 332    0:30   0.00   49.9    97    3.3   120     4.5   1014.6    0.00 
 332    0:40   0.00   50.0    97    3.4   116     5.4   1014.6    0.00 
 332    0:50   0.00   50.0    97    3.6   109     5.3   1014.6    0.00 
 332    1:00   0.00   50.3    97    3.5   114     5.2   1014.6    0.00 
 332    1:10   0.00   50.3    97    3.5   115     5.6   1014.6    0.00 
 332    1:20   0.00   50.9    97    5.0   129     7.3   1014.2    0.00 
 332    1:30   0.00   51.0    97    4.8   127     6.9   1014.2    0.00 
 332    1:40   0.00   51.4    97    4.9   131     6.3   1014.2    0.00 
 332    1:50   0.00   51.1    97    3.8   115     5.2   1014.2    0.00 
 332    2:00   0.00   50.9    97    3.1   111     4.5   1014.2    0.00 
 332    2:10   0.00   51.1    97    3.5   110     4.5   1014.2    0.00 
 332    2:20   0.00   51.1    97    4.6   123     7.7   1014.2    0.00 
 332    2:30   0.00   50.9    96    4.2   114     5.6   1013.9    0.00 
 332    2:40   0.00   51.0    97    4.0   125     5.3   1013.9    0.00 
 332    2:50   0.00   51.2    96    3.4   112     5.1   1013.9    0.00 
 332    3:00   0.00   51.0    96    4.4   123     7.4   1013.9    0.00 
 332    3:10   0.00   51.0    96    6.3   138     8.0   1013.9    0.00 
 332    3:20   0.00   51.0    96    6.8   140     8.2   1013.5    0.00 
 332    3:30   0.00   50.9    96    6.3   137     8.1   1013.5    0.00 
 332    3:40   0.00   50.7    96    5.2   114     8.9   1013.5    0.00 
 332    3:50   0.00   49.9    96    4.8    99     6.1   1013.2    0.00 
 332    4:00   0.00   49.3    96    5.1   101     7.0   1013.2    0.00 
 332    4:10   0.00   48.8    96    5.5    95     8.1   1013.2    0.00 
 332    4:20   0.00   48.6    96    4.6    90     7.0   1013.2    0.00 
 332    4:30   0.00   48.4    96    3.4    99     5.8   1013.2    0.00 
 332    4:40   0.00   48.5    96    3.5    95     5.5   1013.2    0.00 
 332    4:50   0.00   48.4    96    3.1    89     4.6   1013.2    0.00 
 332    5:00   0.00   48.5    96    4.6    94     6.3   1013.2    0.00 
 332    5:10   0.00   48.7    96    4.8   100     7.9   1013.2    0.00 
 332    5:20   0.00   48.5    95    7.4    86     9.6   1013.2    0.00 
 332    5:30   0.00   48.1    96    6.0   101     8.0   1013.2    0.00 
 332    5:40   0.00   48.2    95    8.1    99    11.1   1013.2    0.00 
 332    5:50   0.00   47.9    95    6.4    94    10.2   1013.2    0.00 
 332    6:00   0.00   47.7    95    6.2    86     8.9   1013.2    0.00 
 332    6:10   0.00   47.3    95    6.8    90     9.4   1012.9    0.00 
 332    6:20   0.00   47.1    95    7.3    92    10.4   1013.2    0.00 
 332    6:30   0.00   47.0    95    7.6    95    10.2   1012.9    0.00 
 332    6:40   0.00   47.1    95    7.2    98    11.3   1012.9    0.00 
 332    6:50   0.00   47.1    95    5.5   100     8.4   1012.9    0.00 
 332    7:00   0.00   46.9    95    7.2    92    10.2   1012.9    0.00 
 332    7:10   0.00   46.9    95    7.9    92    10.4   1012.9    0.00 
 332    7:20   0.01   47.0    95    6.6    98     9.2   1012.9    0.00 
 332    7:30   0.01   47.6    95    6.1    92     8.4   1013.2    0.00 
 332    7:40   0.02   47.5    95    6.7    99     8.7   1012.9    0.00 
 332    7:50   0.04   47.9    95    6.3    99     7.8   1012.9    0.00 
 332    8:00   0.06   48.4    95    5.6    91     8.4   1012.9    0.00 
 332    8:10   0.07   49.0    94    5.1    89     6.9   1013.2    0.00 
 332    8:20   0.12   49.7    94    6.3    90     8.4   1012.9    0.00 
 332    8:30   0.18   50.6    93    7.3    97     9.4   1012.9    0.00 
 332    8:40   0.19   51.3    91    7.0    95    10.1   1012.9    0.00 
 332    8:50   0.18   52.2    89    6.3   102     9.0   1012.9    0.00 
 332    9:00   0.11   52.4    88    7.1    99     9.6   1012.9    0.00 
 332    9:10   0.12   52.2    88    7.5    97    10.6   1012.9    0.00 
 332    9:20   0.09   52.1    88    8.2    97    10.7   1012.9    0.00 
 332    9:30   0.07   51.9    88    7.7    97    10.2   1012.9    0.00 
 332    9:40   0.09   51.7    88    7.5    96    10.0   1012.9    0.00 
 332    9:50   0.26   52.6    88    6.6    92     9.0   1012.9    0.00 
 332   10:00   0.34   54.0    85    6.6    98     9.3   1012.9    0.00 
 332   10:10   0.41   55.4    82    6.7   100    10.4   1013.2    0.00 
 332   10:20   0.38   56.7    80    6.6   103     9.7   1012.9    0.00 
 332   10:30   0.24   56.5    80    6.8    98     9.3   1012.9    0.00 
 332   10:40   0.24   56.4    81    7.3    98    10.0   1012.9    0.00 
 332   10:50   0.23   56.5    81    7.8    94    10.2   1012.9    0.00 
 332   11:00   0.28   57.2    79    7.0   107    10.9   1012.5    0.00 
 332   11:10   0.29   57.7    78    6.7   123    12.0   1012.2    0.00 
 332   11:20   0.40   58.2    78    8.2   130    12.0   1012.2    0.00 
 332   11:30   0.25   57.7    79    7.3   125    11.4   1011.9    0.00 
 332   11:40   0.26   57.6    80    7.8   128    11.5   1011.9    0.00 
 332   11:50   0.40   58.5    79    6.7   125    10.9   1011.9    0.00 
 332   12:00   0.35   59.1    78    7.9   129    11.2   1011.5    0.00 

Return to Bodega Marine Reserve graphs page.


Western Regional Climate Center,wrcc@dri.edu